createdAt,value
2022-07-30T04:52:41.454Z,63.90
2022-07-30T04:53:16.665Z,64.30
2022-07-30T04:53:57.139Z,64.00
2022-07-30T04:54:40.856Z,64.00
2022-07-30T04:55:16.539Z,63.70
2022-07-30T04:55:54.451Z,63.60
2022-07-30T04:56:33.863Z,63.20
2022-07-30T04:57:08.482Z,62.40
2022-07-30T04:57:45.462Z,62.10
2022-07-30T04:58:22.596Z,62.00
2022-07-30T04:58:58.449Z,62.10
2022-07-30T04:59:35.566Z,62.20
2022-07-30T05:00:11.495Z,62.40
2022-07-30T05:00:50.843Z,62.30
2022-07-30T05:01:34.027Z,62.40
2022-07-30T05:02:21.645Z,62.00
2022-07-30T05:02:57.973Z,61.80
2022-07-30T05:03:35.819Z,61.70
2022-07-30T05:04:11.858Z,61.70
2022-07-30T05:04:47.401Z,61.50
2022-07-30T05:05:24.496Z,61.50
2022-07-30T05:06:02.494Z,61.50
2022-07-30T05:06:41.392Z,61.50
2022-07-30T05:07:15.739Z,61.10
2022-07-30T05:07:50.486Z,61.00
2022-07-30T05:08:26.477Z,61.10
2022-07-30T05:09:01.209Z,61.00
2022-07-30T05:09:36.602Z,61.00
2022-07-30T05:10:13.222Z,60.60
2022-07-30T05:10:47.860Z,60.40
2022-07-30T05:11:23.035Z,60.50
2022-07-30T05:11:58.351Z,60.50
2022-07-30T05:12:38.586Z,60.20
2022-07-30T05:13:15.228Z,59.80
2022-07-30T05:13:50.747Z,59.50
2022-07-30T05:14:29.852Z,59.50
2022-07-30T05:15:05.242Z,59.60
2022-07-30T05:15:39.522Z,59.90
2022-07-30T05:16:19.629Z,60.00
2022-07-30T05:16:55.986Z,60.20
2022-07-30T05:17:29.926Z,60.20
2022-07-30T05:18:06.262Z,60.20
2022-07-30T05:18:46.160Z,59.90
2022-07-30T05:19:22.821Z,59.70
2022-07-30T05:19:56.985Z,59.50
2022-07-30T05:20:32.088Z,59.50
2022-07-30T05:21:20.178Z,59.30
2022-07-30T05:21:55.508Z,59.10
2022-07-30T05:22:31.433Z,59.00
2022-07-30T05:23:06.298Z,58.70
2022-07-30T05:23:41.230Z,58.50
2022-07-30T05:24:44.276Z,58.40
2022-07-30T05:25:18.229Z,58.90
2022-07-30T05:25:51.893Z,58.90
2022-07-30T05:26:36.064Z,58.50
2022-07-30T05:27:09.854Z,58.40
2022-07-30T05:27:44.242Z,58.00
2022-07-30T05:28:18.641Z,57.80
2022-07-30T05:28:56.886Z,57.70
2022-07-30T05:29:44.598Z,57.40
2022-07-30T05:30:27.419Z,57.40
2022-07-30T05:31:08.077Z,57.30
2022-07-30T05:31:45.475Z,57.10
2022-07-30T05:32:20.910Z,57.20
2022-07-30T05:32:59.294Z,57.00
2022-07-30T05:33:41.221Z,56.40
2022-07-30T05:34:21.685Z,56.20
2022-07-30T05:34:55.803Z,56.00
2022-07-30T05:35:29.847Z,55.80
2022-07-30T05:36:05.039Z,55.80
2022-07-30T05:36:39.502Z,55.80
2022-07-30T05:37:13.625Z,55.20
2022-07-30T05:37:48.222Z,55.10
2022-07-30T05:38:22.197Z,54.70
2022-07-30T05:39:18.421Z,54.40
2022-07-30T05:40:04.854Z,53.80
2022-07-30T05:40:56.911Z,53.50
2022-07-30T05:41:56.097Z,53.40
2022-07-30T05:42:35.311Z,53.30
2022-07-30T05:43:09.067Z,53.20
2022-07-30T05:43:47.571Z,53.00
2022-07-30T05:44:30.035Z,53.00
2022-07-30T05:45:05.393Z,53.00
2022-07-30T05:45:40.175Z,53.40
2022-07-30T05:46:13.854Z,52.90
2022-07-30T05:46:50.814Z,52.70
2022-07-30T05:47:24.740Z,52.60
2022-07-30T05:47:59.128Z,53.00
2022-07-30T05:48:36.695Z,52.80
2022-07-30T05:49:13.300Z,52.60
2022-07-30T05:49:48.949Z,52.60
2022-07-30T05:50:23.519Z,52.60
2022-07-30T05:50:57.841Z,52.50
2022-07-30T05:51:33.687Z,52.50
2022-07-30T05:52:08.164Z,52.50
2022-07-30T05:52:42.051Z,52.40
2022-07-30T05:53:36.270Z,52.20
2022-07-30T05:54:29.678Z,52.20
2022-07-30T05:55:24.770Z,52.20
2022-07-30T05:56:28.668Z,52.20
2022-07-30T05:57:21.489Z,52.10
2022-07-30T05:57:55.231Z,52.20
2022-07-30T05:58:29.226Z,52.10
2022-07-30T05:59:05.594Z,51.90
2022-07-30T06:00:00.320Z,51.80
2022-07-30T06:00:51.856Z,52.00
2022-07-30T06:01:30.757Z,51.90
2022-07-30T06:02:11.150Z,51.60
2022-07-30T06:03:09.062Z,51.90
2022-07-30T06:04:02.266Z,52.00
2022-07-30T06:04:54.507Z,52.10
2022-07-30T06:05:29.468Z,52.10
2022-07-30T06:06:10.082Z,52.00
2022-07-30T06:06:43.789Z,51.80
2022-07-30T06:07:18.264Z,51.70
2022-07-30T06:07:53.465Z,51.60
2022-07-30T06:08:29.751Z,51.80
2022-07-30T06:09:04.900Z,51.90
2022-07-30T06:09:43.827Z,51.80
2022-07-30T06:10:17.778Z,51.80
2022-07-30T06:10:53.101Z,51.80
2022-07-30T06:11:27.279Z,51.90
2022-07-30T06:12:01.754Z,52.20
2022-07-30T06:12:37.618Z,51.60
2022-07-30T06:13:12.620Z,51.50
2022-07-30T06:13:47.057Z,51.60
2022-07-30T06:14:22.520Z,51.60
2022-07-30T06:14:57.006Z,51.40
2022-07-30T06:15:35.755Z,51.40
2022-07-30T06:16:11.008Z,51.30
2022-07-30T06:16:45.978Z,51.20
2022-07-30T06:17:21.658Z,51.20
2022-07-30T06:18:14.102Z,51.20
2022-07-30T06:19:00.214Z,51.00
2022-07-30T06:19:47.049Z,50.80
2022-07-30T06:20:23.002Z,51.00
2022-07-30T06:21:19.615Z,50.90
2022-07-30T06:22:25.654Z,50.50
2022-07-30T06:23:02.659Z,50.70
2022-07-30T06:23:48.986Z,50.70
2022-07-30T06:24:30.772Z,50.70
2022-07-30T06:25:18.549Z,50.90
2022-07-30T06:25:53.495Z,51.00
2022-07-30T06:26:29.301Z,50.60
2022-07-30T06:27:04.248Z,50.50
2022-07-30T06:27:40.020Z,50.50
2022-07-30T06:28:36.386Z,50.60
2022-07-30T06:29:10.700Z,50.60
2022-07-30T06:29:52.145Z,50.10
2022-07-30T06:30:30.557Z,50.30
2022-07-30T06:31:06.914Z,50.00
2022-07-30T06:31:41.750Z,49.80
2022-07-30T06:32:20.491Z,49.80
2022-07-30T06:32:57.921Z,49.70
2022-07-30T06:33:33.241Z,49.80
2022-07-30T06:34:08.276Z,49.60
2022-07-30T06:34:51.939Z,49.20
2022-07-30T06:35:31.725Z,49.30
2022-07-30T06:36:07.090Z,49.30
2022-07-30T06:36:52.289Z,49.20
2022-07-30T06:38:05.771Z,49.50
2022-07-30T06:38:22.903Z,49.70
2022-07-30T06:39:05.969Z,50.00
2022-07-30T06:40:02.530Z,49.90
2022-07-30T06:41:11.140Z,49.90
2022-07-30T06:42:05.836Z,49.60
2022-07-30T06:43:03.316Z,49.60
2022-07-30T06:43:42.683Z,49.80
2022-07-30T06:44:31.535Z,49.60
2022-07-30T06:45:14.511Z,49.20
2022-07-30T06:46:09.513Z,49.00
2022-07-30T06:46:51.785Z,48.80
2022-07-30T06:47:32.310Z,48.90
2022-07-30T06:48:07.619Z,49.00
2022-07-30T06:48:42.896Z,49.30
2022-07-30T06:49:17.248Z,49.20
2022-07-30T06:49:52.846Z,49.30
2022-07-30T06:50:28.884Z,49.30
2022-07-30T06:51:02.789Z,49.30
2022-07-30T06:51:37.884Z,49.20
2022-07-30T06:52:18.322Z,49.20
2022-07-30T06:52:57.483Z,49.20
2022-07-30T06:53:42.284Z,49.20
2022-07-30T06:54:20.498Z,49.40
2022-07-30T06:55:12.948Z,49.70
2022-07-30T06:55:58.364Z,49.90
2022-07-30T06:56:42.190Z,50.10
2022-07-30T06:57:16.117Z,50.20
2022-07-30T06:57:51.756Z,50.30
2022-07-30T06:58:59.877Z,50.10
2022-07-30T06:59:56.747Z,49.90
2022-07-30T07:00:37.181Z,50.00
2022-07-30T07:01:16.998Z,49.80
2022-07-30T07:01:54.859Z,49.60
2022-07-30T07:02:32.144Z,49.60
2022-07-30T07:03:21.742Z,49.70
2022-07-30T07:03:55.062Z,49.70
2022-07-30T07:04:29.993Z,49.70
2022-07-30T07:05:04.741Z,49.40
2022-07-30T07:05:39.188Z,49.30
2022-07-30T07:06:13.514Z,49.30
2022-07-30T07:06:48.771Z,49.60
2022-07-30T07:07:41.694Z,49.80
2022-07-30T07:08:21.845Z,49.70
2022-07-30T07:09:02.241Z,49.60
2022-07-30T07:09:53.958Z,49.50
2022-07-30T07:10:57.484Z,49.60
2022-07-30T07:11:38.255Z,49.50
2022-07-30T07:12:17.113Z,49.80
2022-07-30T07:12:51.909Z,49.90
2022-07-30T07:13:30.765Z,50.00
2022-07-30T07:14:06.157Z,50.00
2022-07-30T07:14:43.318Z,50.00
2022-07-30T07:15:19.513Z,49.80
2022-07-30T07:15:56.187Z,49.70
2022-07-30T07:16:32.335Z,49.70
2022-07-30T07:17:14.445Z,49.70
2022-07-30T07:18:05.677Z,49.80
2022-07-30T07:18:46.394Z,49.90
2022-07-30T07:20:00.336Z,49.80
2022-07-30T07:20:14.144Z,49.90
2022-07-30T07:20:58.029Z,50.20
2022-07-30T07:21:33.045Z,51.00
2022-07-30T07:22:08.504Z,50.80
2022-07-30T07:22:43.502Z,50.90
2022-07-30T07:23:20.603Z,50.60
2022-07-30T07:24:01.026Z,50.20
2022-07-30T07:24:56.703Z,50.00
2022-07-30T07:25:35.379Z,49.90
2022-07-30T07:26:08.869Z,49.90
2022-07-30T07:26:42.898Z,49.80
2022-07-30T07:27:17.998Z,49.70
2022-07-30T07:28:12.743Z,50.30
2022-07-30T07:28:51.510Z,50.70
2022-07-30T07:29:26.586Z,50.60
2022-07-30T07:30:05.279Z,50.60
2022-07-30T07:30:44.278Z,50.50
2022-07-30T07:32:05.618Z,50.60
2022-07-30T07:32:16.025Z,50.60
2022-07-30T07:32:49.880Z,50.50
2022-07-30T07:33:23.840Z,50.30
2022-07-30T07:34:00.950Z,50.20
2022-07-30T07:34:35.000Z,50.10
2022-07-30T07:35:11.166Z,50.10
2022-07-30T07:35:49.826Z,50.10
2022-07-30T07:36:37.541Z,50.60
2022-07-30T07:37:12.416Z,49.80
2022-07-30T07:37:47.792Z,49.90
2022-07-30T07:38:27.572Z,50.00
2022-07-30T07:39:03.364Z,50.00
2022-07-30T07:39:42.032Z,50.00
2022-07-30T07:40:19.054Z,49.90
2022-07-30T07:40:53.573Z,49.80
2022-07-30T07:41:28.948Z,49.90
2022-07-30T07:42:23.917Z,50.20
2022-07-30T07:43:01.009Z,50.60
2022-07-30T07:43:37.645Z,51.50
2022-07-30T07:44:11.986Z,50.70
2022-07-30T07:44:48.565Z,50.40
2022-07-30T07:45:24.994Z,50.20
2022-07-30T18:00:02.228Z,47.30
2022-07-30T18:00:38.375Z,48.00
2022-07-30T18:01:12.382Z,48.20
2022-07-30T18:01:49.238Z,48.20
2022-07-30T18:02:28.566Z,48.00
2022-07-30T18:03:04.576Z,48.10
2022-07-30T18:03:38.606Z,48.10
2022-07-30T18:04:21.655Z,47.90
2022-07-30T18:04:57.310Z,48.00
2022-07-30T18:05:31.525Z,48.00
2022-07-30T18:06:08.361Z,48.40
2022-07-30T18:06:42.154Z,48.40
2022-07-30T18:07:18.750Z,48.40
2022-07-30T18:07:53.110Z,48.00
2022-07-30T18:08:27.043Z,48.70
2022-07-30T18:09:01.788Z,48.60
2022-07-30T18:09:39.250Z,48.60
2022-07-30T18:10:15.571Z,48.60
2022-07-30T18:10:49.459Z,48.80
2022-07-30T18:11:24.680Z,48.80
2022-07-30T18:12:00.669Z,48.80
2022-07-30T18:12:38.203Z,48.80
2022-07-30T18:13:25.732Z,49.00
2022-07-30T18:14:02.611Z,49.10
2022-07-30T18:14:38.147Z,49.20
2022-07-30T18:15:13.446Z,49.30
2022-07-30T18:15:48.807Z,49.40
2022-07-30T18:16:23.474Z,49.40
2022-07-30T18:16:58.998Z,49.50
2022-07-30T18:17:35.606Z,49.70
2022-07-30T18:18:10.190Z,49.70
2022-07-30T18:18:46.742Z,49.70
2022-07-30T18:19:27.396Z,49.70
2022-07-30T18:20:04.020Z,49.50
2022-07-30T18:20:38.394Z,49.60
2022-07-30T18:21:23.707Z,49.90
2022-07-30T18:21:57.732Z,49.90
2022-07-30T18:22:37.843Z,49.90
2022-07-30T18:23:16.905Z,49.90
2022-07-30T18:23:52.126Z,49.90
2022-07-30T18:24:27.894Z,50.00
2022-07-30T18:25:03.212Z,50.20
2022-07-30T18:25:53.244Z,50.50
2022-07-30T18:26:29.469Z,50.30
2022-07-30T18:27:05.618Z,50.30
2022-07-30T18:27:38.835Z,50.40
2022-07-30T18:28:12.273Z,50.60
2022-07-30T18:28:48.452Z,50.70
2022-07-30T18:29:22.173Z,50.70
2022-07-30T18:29:56.683Z,50.90
2022-07-30T18:30:32.426Z,51.00
2022-07-30T18:31:10.002Z,51.10
2022-07-30T18:31:44.108Z,51.10
2022-07-30T18:32:18.201Z,51.30
2022-07-30T18:32:53.046Z,51.40
2022-07-30T18:33:28.558Z,51.20
2022-07-30T18:34:02.517Z,51.20
2022-07-30T18:34:38.517Z,51.30
2022-07-30T18:35:15.377Z,51.50
2022-07-30T18:35:49.680Z,51.50
2022-07-30T18:36:24.184Z,51.50
2022-07-30T18:36:59.646Z,51.40
2022-07-30T18:37:41.421Z,51.50
2022-07-30T18:38:17.366Z,51.30
2022-07-30T18:38:51.260Z,51.40
2022-07-30T18:39:27.427Z,51.70
2022-07-30T18:40:01.111Z,51.90
2022-07-30T18:40:42.186Z,52.30
2022-07-30T18:41:17.344Z,52.60
2022-07-30T18:41:53.291Z,52.80
2022-07-30T18:42:28.704Z,52.80
2022-07-30T18:43:04.037Z,52.50
2022-07-30T18:43:48.005Z,52.20
2022-07-30T18:44:23.917Z,52.00
2022-07-30T18:44:58.419Z,51.90
2022-07-30T18:45:36.995Z,52.00
2022-07-30T18:46:10.796Z,52.00
2022-07-30T18:46:45.692Z,52.00
2022-07-30T18:47:19.542Z,52.10
2022-07-30T18:47:55.916Z,51.90
2022-07-30T18:48:31.375Z,51.90
2022-07-30T18:49:26.615Z,52.00
2022-07-30T18:50:03.801Z,52.10
2022-07-30T18:50:39.064Z,52.20
2022-07-30T18:51:14.478Z,52.30
2022-07-30T18:51:48.981Z,52.50
2022-07-30T18:52:24.342Z,52.50
2022-07-30T18:53:01.124Z,52.50
2022-07-30T18:53:50.869Z,52.50
2022-07-30T18:54:26.632Z,52.50
2022-07-30T18:55:00.878Z,52.70
2022-07-30T18:55:36.154Z,52.90
2022-07-30T18:56:12.190Z,53.00
2022-07-30T18:56:50.460Z,53.10
2022-07-30T18:57:26.018Z,53.10
2022-07-30T18:58:00.079Z,53.20
2022-07-30T18:58:33.433Z,53.20
2022-07-30T18:59:09.429Z,53.20
2022-07-30T18:59:43.097Z,53.10
2022-07-30T19:00:34.827Z,53.00
2022-07-30T19:01:10.295Z,53.00
2022-07-30T19:01:46.138Z,53.10
2022-07-30T19:02:20.544Z,53.20
2022-07-30T19:02:56.091Z,53.90
2022-07-30T19:03:31.758Z,53.50
2022-07-30T19:04:06.607Z,53.60
2022-07-30T19:04:42.195Z,53.60
2022-07-30T19:05:17.312Z,53.60
2022-07-30T19:05:51.343Z,53.70
2022-07-30T19:06:26.472Z,53.70
2022-07-30T19:07:00.174Z,53.80
2022-07-30T19:07:56.941Z,53.70
2022-07-30T19:08:29.934Z,53.80
2022-07-30T19:09:09.127Z,53.80
2022-07-30T19:09:55.734Z,53.80
2022-07-30T19:10:31.067Z,53.90
2022-07-30T19:11:07.542Z,53.90
2022-07-30T19:11:42.639Z,54.00
2022-07-30T19:12:17.478Z,54.20
2022-07-30T19:12:53.112Z,54.20
2022-07-30T19:13:27.634Z,54.80
2022-07-30T19:14:03.207Z,54.40
2022-07-30T19:14:37.717Z,54.20
2022-07-30T19:15:14.179Z,54.20
2022-07-30T19:15:49.662Z,54.20
2022-07-30T19:16:22.854Z,54.30
2022-07-30T19:16:59.414Z,54.30
2022-07-30T19:17:46.430Z,54.20
2022-07-30T19:18:22.744Z,54.40
2022-07-30T19:18:56.721Z,54.40
2022-07-30T19:19:30.425Z,54.60
2022-07-30T19:20:06.615Z,54.70
2022-07-30T19:20:43.768Z,54.70
2022-07-30T19:21:19.469Z,54.80
2022-07-30T19:21:53.614Z,54.90
2022-07-30T19:22:30.073Z,55.10
2022-07-30T19:23:06.415Z,55.10
2022-07-30T19:23:41.413Z,55.00
2022-07-30T19:24:17.647Z,54.90
2022-07-30T19:24:51.671Z,54.80
2022-07-30T19:25:26.561Z,54.90
2022-07-30T19:26:01.144Z,55.10
2022-07-30T19:26:34.885Z,55.30
2022-07-30T19:27:13.925Z,55.30
2022-07-30T19:27:49.433Z,55.40
2022-07-30T19:28:23.125Z,55.20
2022-07-30T19:28:57.460Z,55.10
2022-07-30T19:29:33.805Z,55.00
2022-07-30T19:30:10.739Z,54.90
2022-07-30T19:30:44.392Z,54.90
2022-07-30T19:31:19.953Z,55.00
2022-07-30T19:31:54.200Z,55.20
2022-07-30T19:32:28.473Z,55.40
2022-07-30T19:33:12.487Z,55.30
2022-07-30T19:33:48.501Z,55.30
2022-07-30T19:34:22.125Z,55.30
2022-07-30T19:34:58.196Z,55.30
2022-07-30T19:35:32.918Z,55.30
2022-07-30T19:36:08.920Z,55.50
2022-07-30T19:36:44.010Z,55.60
2022-07-30T19:37:17.708Z,55.70
2022-07-30T19:37:52.367Z,55.80
2022-07-30T19:38:29.193Z,55.80
2022-07-30T19:39:06.930Z,55.80
2022-07-30T19:40:05.712Z,55.80
2022-07-30T19:40:37.085Z,55.80
2022-07-30T19:41:14.422Z,55.80
2022-07-30T19:42:43.576Z,56.00
2022-07-30T19:43:23.762Z,55.90
2022-07-30T19:44:00.423Z,55.70
2022-07-30T19:44:37.867Z,55.60
2022-07-30T19:45:16.091Z,55.60
2022-07-30T19:45:51.202Z,55.70
2022-07-30T19:46:26.456Z,55.90
2022-07-30T19:47:02.448Z,56.00
2022-07-30T19:47:39.675Z,56.10
2022-07-30T19:48:28.470Z,56.20
2022-07-30T19:49:06.802Z,56.40
2022-07-30T19:49:43.887Z,56.30
2022-07-30T19:50:19.639Z,56.30
2022-07-30T19:51:02.638Z,56.70
2022-07-30T19:52:07.353Z,56.30
2022-07-30T19:52:34.903Z,56.20
2022-07-30T19:53:10.191Z,56.20
2022-07-30T19:53:45.102Z,56.10
2022-07-30T19:54:19.137Z,56.20
2022-07-30T19:54:53.590Z,56.30
2022-07-30T19:55:34.906Z,56.40
2022-07-30T19:56:11.489Z,56.40
2022-07-30T19:56:46.642Z,56.30
2022-07-30T19:57:22.053Z,56.40
2022-07-30T19:57:58.097Z,56.40
2022-07-30T19:58:32.564Z,56.50
2022-07-30T19:59:14.887Z,56.50
2022-07-30T19:59:59.598Z,56.60
2022-07-30T20:00:49.529Z,56.70
2022-07-30T20:01:24.343Z,56.80
2022-07-30T20:02:17.140Z,56.80
2022-07-30T20:02:52.432Z,56.80
2022-07-30T20:03:31.693Z,56.90
2022-07-30T20:04:07.957Z,57.10
2022-07-30T20:04:43.807Z,57.10
2022-07-30T20:05:18.174Z,57.10
2022-07-30T20:05:54.749Z,57.10
2022-07-30T20:06:33.381Z,57.10
2022-07-30T20:07:10.320Z,57.10
2022-07-30T20:07:44.978Z,57.20
2022-07-30T20:08:24.771Z,57.40
2022-07-30T20:08:59.963Z,57.40
2022-07-30T20:09:37.694Z,57.30
2022-07-30T20:10:12.715Z,57.40
2022-07-30T20:10:48.596Z,58.00
2022-07-30T20:11:36.045Z,57.70
2022-07-30T20:12:11.449Z,58.00
2022-07-30T20:12:48.994Z,58.00
2022-07-30T20:13:23.373Z,58.10
2022-07-30T20:13:57.894Z,58.20
2022-07-30T20:14:34.354Z,58.30
2022-07-30T20:15:14.771Z,58.30
2022-07-30T20:15:53.499Z,58.30
2022-07-30T20:16:27.869Z,58.20
2022-07-30T20:17:03.602Z,58.20
2022-07-30T20:17:39.564Z,58.30
2022-07-30T20:18:16.948Z,58.30
2022-07-30T20:19:07.179Z,58.30
2022-07-30T20:19:47.537Z,58.30
2022-07-30T20:20:26.392Z,58.40
2022-07-30T20:21:02.629Z,58.40
2022-07-30T20:21:56.415Z,58.50
2022-07-30T20:22:34.049Z,58.50
2022-07-30T20:23:08.030Z,58.70
2022-07-30T20:23:42.381Z,58.80
2022-07-30T20:24:18.399Z,58.80
2022-07-30T20:24:52.641Z,58.80
2022-07-30T20:25:27.413Z,58.90
2022-07-30T20:26:14.834Z,59.00
2022-07-30T20:26:50.874Z,59.20
2022-07-30T20:27:36.205Z,59.40
2022-07-30T20:28:11.895Z,59.50
2022-07-30T20:28:52.376Z,59.40
2022-07-30T20:29:28.523Z,59.50
2022-07-30T20:30:05.585Z,59.60
2022-07-30T20:30:39.459Z,59.60
2022-07-30T20:31:14.849Z,59.80
2022-07-30T20:31:50.610Z,60.00
2022-07-30T20:32:26.444Z,60.10
2022-07-30T23:12:16.902Z,55.90
